ASA291 KSAN-KSFO
Flight info
| Callsign | ASA291 |
|---|---|
| Flight time | 1h 5m |
| Altitude | 34000 |
| Route | PADRZ2 IKAYE RIZIN SPLNT STOKD SERFR SERFR4 |
| Aircraft | B738/M-SDE2E3FGHIRWXY/LB1 |
Departure
| Time | 2026-04-26 04:02 |
|---|---|
| Airport | San Diego International Airport (KSAN) |
Arrival
| Time | 2026-04-26 05:07 |
|---|---|
| Airport | San Francisco International Airport (KSFO) |
| Time | Latitude | Longitude | Altitude | Speed | Heading |
|---|---|---|---|---|---|
| 2026-04-26 03:11 | 32.73250 | -117.20333 | 22 ft | 0 kts | 220° |
| 2026-04-26 03:47 | 32.73275 | -117.20308 | 24 ft | 4 kts | 220° |
| 2026-04-26 03:47 | 32.73294 | -117.20289 | 24 ft | 2 kts | 220° |
| 2026-04-26 03:47 | 32.73313 | -117.20273 | 23 ft | 4 kts | 200° |
| 2026-04-26 03:47 | 32.73338 | -117.20269 | 23 ft | 4 kts | 167° |
| 2026-04-26 03:48 | 32.73361 | -117.20277 | 22 ft | 1 kts | 165° |
| 2026-04-26 03:48 | 32.73385 | -117.20281 | 22 ft | 4 kts | 190° |
| 2026-04-26 03:48 | 32.73408 | -117.20274 | 23 ft | 1 kts | 196° |
| 2026-04-26 03:48 | 32.73428 | -117.20262 | 25 ft | 4 kts | 235° |
| 2026-04-26 03:49 | 32.73440 | -117.20238 | 23 ft | 4 kts | 206° |
| 2026-04-26 03:49 | 32.73462 | -117.20232 | 22 ft | 4 kts | 149° |
| 2026-04-26 03:49 | 32.73470 | -117.20247 | 23 ft | 4 kts | 55° |
| 2026-04-26 03:49 | 32.73451 | -117.20259 | 26 ft | 4 kts | 16° |
| 2026-04-26 03:50 | 32.73425 | -117.20268 | 22 ft | 4 kts | 16° |
| 2026-04-26 03:50 | 32.73419 | -117.20270 | 22 ft | 0 kts | 16° |
| 2026-04-26 03:55 | 32.73439 | -117.20263 | 23 ft | 6 kts | 15° |
| 2026-04-26 03:55 | 32.73485 | -117.20248 | 22 ft | 7 kts | 15° |
| 2026-04-26 03:55 | 32.73529 | -117.20227 | 23 ft | 7 kts | 38° |
| 2026-04-26 03:55 | 32.73538 | -117.20146 | 22 ft | 14 kts | 105° |
| 2026-04-26 03:56 | 32.73511 | -117.20035 | 22 ft | 14 kts | 106° |
| 2026-04-26 03:56 | 32.73485 | -117.19928 | 24 ft | 13 kts | 106° |
| 2026-04-26 03:56 | 32.73459 | -117.19819 | 23 ft | 17 kts | 105° |
| 2026-04-26 03:56 | 32.73424 | -117.19671 | 23 ft | 19 kts | 106° |
| 2026-04-26 03:57 | 32.73387 | -117.19522 | 23 ft | 18 kts | 106° |
| 2026-04-26 03:57 | 32.73352 | -117.19377 | 22 ft | 18 kts | 106° |
| 2026-04-26 03:57 | 32.73319 | -117.19238 | 21 ft | 17 kts | 106° |
| 2026-04-26 03:57 | 32.73286 | -117.19106 | 24 ft | 17 kts | 106° |
| 2026-04-26 03:58 | 32.73255 | -117.18975 | 23 ft | 16 kts | 106° |
| 2026-04-26 03:58 | 32.73225 | -117.18852 | 23 ft | 15 kts | 105° |
| 2026-04-26 03:58 | 32.73197 | -117.18732 | 15 ft | 15 kts | 105° |
| 2026-04-26 03:58 | 32.73169 | -117.18618 | 25 ft | 14 kts | 107° |
| 2026-04-26 03:59 | 32.73136 | -117.18487 | 25 ft | 18 kts | 107° |
| 2026-04-26 03:59 | 32.73102 | -117.18345 | 24 ft | 18 kts | 106° |
| 2026-04-26 03:59 | 32.73068 | -117.18206 | 26 ft | 17 kts | 106° |
| 2026-04-26 03:59 | 32.73036 | -117.18073 | 25 ft | 16 kts | 106° |
| 2026-04-26 04:00 | 32.73015 | -117.17987 | 24 ft | 16 kts | 106° |
| 2026-04-26 04:00 | 32.72984 | -117.17863 | 23 ft | 15 kts | 107° |
| 2026-04-26 04:00 | 32.72952 | -117.17745 | 25 ft | 14 kts | 106° |
| 2026-04-26 04:00 | 32.72965 | -117.17640 | 23 ft | 13 kts | 72° |
| 2026-04-26 04:01 | 32.73002 | -117.17574 | 23 ft | 6 kts | 19° |
| 2026-04-26 04:01 | 32.73026 | -117.17600 | 24 ft | 5 kts | 287° |
| 2026-04-26 04:01 | 32.73052 | -117.17712 | 26 ft | 39 kts | 285° |
| 2026-04-26 04:01 | 32.73199 | -117.18320 | 27 ft | 113 kts | 286° |
| 2026-04-26 04:02 | 32.73493 | -117.19446 | 106 ft | 165 kts | 287° |
| 2026-04-26 04:02 | 32.73791 | -117.20745 | 1090 ft | 155 kts | 284° |
| 2026-04-26 04:02 | 32.74234 | -117.21959 | 1788 ft | 170 kts | 302° |
| 2026-04-26 04:02 | 32.74967 | -117.23214 | 2066 ft | 199 kts | 302° |
| 2026-04-26 04:03 | 32.75804 | -117.24646 | 2276 ft | 222 kts | 303° |
| 2026-04-26 04:03 | 32.76727 | -117.26238 | 2497 ft | 245 kts | 302° |
| 2026-04-26 04:03 | 32.77701 | -117.27929 | 3193 ft | 250 kts | 302° |
| 2026-04-26 04:03 | 32.78690 | -117.29654 | 3986 ft | 253 kts | 303° |
| 2026-04-26 04:04 | 32.79674 | -117.31374 | 4772 ft | 256 kts | 303° |
| 2026-04-26 04:04 | 32.80726 | -117.33088 | 5553 ft | 259 kts | 305° |
| 2026-04-26 04:04 | 32.81837 | -117.34804 | 6325 ft | 263 kts | 305° |
| 2026-04-26 04:04 | 32.82958 | -117.36522 | 7154 ft | 262 kts | 305° |
| 2026-04-26 04:05 | 32.84074 | -117.38238 | 7896 ft | 265 kts | 305° |
| 2026-04-26 04:05 | 32.85205 | -117.39982 | 8647 ft | 267 kts | 304° |
| 2026-04-26 04:05 | 32.86342 | -117.41740 | 9459 ft | 268 kts | 304° |
| 2026-04-26 04:05 | 32.87483 | -117.43506 | 10198 ft | 271 kts | 304° |
| 2026-04-26 04:06 | 32.88671 | -117.45354 | 10435 ft | 292 kts | 304° |
| 2026-04-26 04:06 | 32.89952 | -117.47349 | 10616 ft | 314 kts | 304° |
| 2026-04-26 04:06 | 32.91324 | -117.49486 | 10800 ft | 334 kts | 304° |
| 2026-04-26 04:06 | 32.92757 | -117.51714 | 11266 ft | 343 kts | 304° |
| 2026-04-26 04:07 | 32.94215 | -117.53979 | 11927 ft | 346 kts | 303° |
| 2026-04-26 04:07 | 32.95665 | -117.56235 | 12631 ft | 349 kts | 303° |
| 2026-04-26 04:07 | 32.97168 | -117.58579 | 13321 ft | 353 kts | 303° |
| 2026-04-26 04:07 | 32.98644 | -117.60883 | 13987 ft | 357 kts | 302° |
| 2026-04-26 04:08 | 33.00152 | -117.63236 | 14675 ft | 359 kts | 302° |
| 2026-04-26 04:08 | 33.01668 | -117.65605 | 15411 ft | 360 kts | 302° |
| 2026-04-26 04:08 | 33.03195 | -117.67990 | 16118 ft | 362 kts | 302° |
| 2026-04-26 04:08 | 33.04728 | -117.70389 | 16811 ft | 365 kts | 302° |
| 2026-04-26 04:09 | 33.06280 | -117.72793 | 17479 ft | 369 kts | 304° |
| 2026-04-26 04:09 | 33.08136 | -117.74979 | 18146 ft | 378 kts | 314° |
| 2026-04-26 04:09 | 33.10172 | -117.76973 | 18737 ft | 381 kts | 314° |
| 2026-04-26 04:09 | 33.12239 | -117.78981 | 19252 ft | 385 kts | 314° |
| 2026-04-26 04:10 | 33.14312 | -117.81034 | 19776 ft | 388 kts | 313° |
| 2026-04-26 04:10 | 33.16360 | -117.83101 | 20302 ft | 391 kts | 312° |
| 2026-04-26 04:10 | 33.18441 | -117.85217 | 20829 ft | 394 kts | 311° |
| 2026-04-26 04:10 | 33.20496 | -117.87389 | 21323 ft | 395 kts | 308° |
| 2026-04-26 04:11 | 33.22474 | -117.89684 | 21825 ft | 397 kts | 307° |
| 2026-04-26 04:11 | 33.24424 | -117.92035 | 22346 ft | 399 kts | 306° |
| 2026-04-26 04:11 | 33.26377 | -117.94413 | 22840 ft | 402 kts | 305° |
| 2026-04-26 04:11 | 33.28344 | -117.96804 | 23328 ft | 405 kts | 305° |
| 2026-04-26 04:12 | 33.30334 | -117.99212 | 23756 ft | 408 kts | 305° |
| 2026-04-26 04:12 | 33.32340 | -118.01629 | 24169 ft | 410 kts | 305° |
| 2026-04-26 04:12 | 33.34362 | -118.04055 | 24596 ft | 412 kts | 305° |
| 2026-04-26 04:12 | 33.36388 | -118.06482 | 25010 ft | 414 kts | 305° |
| 2026-04-26 04:13 | 33.38432 | -118.08930 | 25465 ft | 415 kts | 306° |
| 2026-04-26 04:13 | 33.40476 | -118.11380 | 25807 ft | 419 kts | 306° |
| 2026-04-26 04:13 | 33.42541 | -118.13855 | 26175 ft | 421 kts | 306° |
| 2026-04-26 04:13 | 33.44615 | -118.16342 | 26551 ft | 423 kts | 306° |
| 2026-04-26 04:14 | 33.46700 | -118.18844 | 26921 ft | 425 kts | 306° |
| 2026-04-26 04:14 | 33.48795 | -118.21360 | 27270 ft | 427 kts | 305° |
| 2026-04-26 04:14 | 33.50869 | -118.23854 | 27599 ft | 429 kts | 305° |
| 2026-04-26 04:14 | 33.52976 | -118.26389 | 27938 ft | 431 kts | 305° |
| 2026-04-26 04:15 | 33.55095 | -118.28941 | 28264 ft | 433 kts | 305° |
| 2026-04-26 04:15 | 33.57230 | -118.31514 | 28579 ft | 436 kts | 306° |
| 2026-04-26 04:15 | 33.59370 | -118.34095 | 28915 ft | 437 kts | 306° |
| 2026-04-26 04:15 | 33.61514 | -118.36678 | 29432 ft | 434 kts | 305° |
| 2026-04-26 04:16 | 33.63634 | -118.39231 | 30084 ft | 429 kts | 305° |
| 2026-04-26 04:16 | 33.65732 | -118.41760 | 30500 ft | 427 kts | 305° |
| 2026-04-26 04:16 | 33.67828 | -118.44295 | 30769 ft | 429 kts | 305° |
| 2026-04-26 04:16 | 33.69931 | -118.46845 | 31035 ft | 430 kts | 305° |
| 2026-04-26 04:17 | 33.72034 | -118.49394 | 31396 ft | 429 kts | 305° |
| 2026-04-26 04:17 | 33.74105 | -118.51904 | 31793 ft | 427 kts | 306° |
| 2026-04-26 04:17 | 33.76199 | -118.54445 | 32010 ft | 430 kts | 306° |
| 2026-04-26 04:17 | 33.78313 | -118.57015 | 32261 ft | 431 kts | 306° |
| 2026-04-26 04:18 | 33.80419 | -118.59573 | 32638 ft | 430 kts | 306° |
| 2026-04-26 04:18 | 33.82518 | -118.62121 | 33030 ft | 428 kts | 306° |
| 2026-04-26 04:18 | 33.84614 | -118.64670 | 33361 ft | 427 kts | 306° |
| 2026-04-26 04:18 | 33.86710 | -118.67223 | 33660 ft | 428 kts | 306° |
| 2026-04-26 04:19 | 33.88799 | -118.69770 | 33967 ft | 427 kts | 306° |
| 2026-04-26 04:19 | 33.93014 | -118.74917 | 33978 ft | 433 kts | 306° |
| 2026-04-26 04:20 | 33.97201 | -118.80028 | 33967 ft | 430 kts | 306° |
| 2026-04-26 04:20 | 34.01387 | -118.85145 | 33962 ft | 427 kts | 306° |
| 2026-04-26 04:21 | 34.05551 | -118.90249 | 33971 ft | 425 kts | 306° |
| 2026-04-26 04:21 | 34.09697 | -118.95339 | 33981 ft | 426 kts | 307° |
| 2026-04-26 04:22 | 34.13889 | -119.00511 | 33986 ft | 434 kts | 306° |
| 2026-04-26 04:22 | 34.17318 | -119.06366 | 33974 ft | 426 kts | 294° |
| 2026-04-26 04:23 | 34.20344 | -119.12528 | 33975 ft | 427 kts | 294° |
| 2026-04-26 04:23 | 34.23420 | -119.18684 | 33973 ft | 428 kts | 295° |
| 2026-04-26 04:24 | 34.26522 | -119.24762 | 33978 ft | 428 kts | 295° |
| 2026-04-26 04:24 | 34.29656 | -119.30874 | 33975 ft | 428 kts | 296° |
| 2026-04-26 04:25 | 34.32788 | -119.36989 | 33969 ft | 427 kts | 296° |
| 2026-04-26 04:25 | 34.35909 | -119.43102 | 33958 ft | 426 kts | 296° |
| 2026-04-26 04:26 | 34.39021 | -119.49212 | 33940 ft | 426 kts | 296° |
| 2026-04-26 04:26 | 34.42446 | -119.55094 | 33950 ft | 433 kts | 308° |
| 2026-04-26 04:27 | 34.46701 | -119.60291 | 33938 ft | 434 kts | 309° |
| 2026-04-26 04:27 | 34.50979 | -119.65461 | 33946 ft | 433 kts | 309° |
| 2026-04-26 04:28 | 34.55221 | -119.70646 | 33957 ft | 433 kts | 309° |
| 2026-04-26 04:28 | 34.59427 | -119.75825 | 33954 ft | 433 kts | 309° |
| 2026-04-26 04:29 | 34.63656 | -119.81048 | 33944 ft | 433 kts | 308° |
| 2026-04-26 04:29 | 34.67882 | -119.86275 | 33956 ft | 433 kts | 309° |
| 2026-04-26 04:30 | 34.72107 | -119.91509 | 33958 ft | 434 kts | 309° |
| 2026-04-26 04:30 | 34.76327 | -119.96742 | 33960 ft | 433 kts | 309° |
| 2026-04-26 04:31 | 34.80536 | -120.01970 | 33971 ft | 432 kts | 309° |
| 2026-04-26 04:31 | 34.84744 | -120.07205 | 33978 ft | 432 kts | 309° |
| 2026-04-26 04:32 | 34.88948 | -120.12445 | 33978 ft | 432 kts | 309° |
| 2026-04-26 04:32 | 34.93152 | -120.17695 | 34027 ft | 432 kts | 310° |
| 2026-04-26 04:33 | 34.97360 | -120.22956 | 33979 ft | 433 kts | 310° |
| 2026-04-26 04:33 | 35.01542 | -120.28190 | 33982 ft | 433 kts | 310° |
| 2026-04-26 04:34 | 35.05744 | -120.33460 | 33991 ft | 433 kts | 309° |
| 2026-04-26 04:34 | 35.09982 | -120.38709 | 33989 ft | 435 kts | 312° |
| 2026-04-26 04:35 | 35.14439 | -120.43727 | 33989 ft | 436 kts | 313° |
| 2026-04-26 04:35 | 35.18941 | -120.48695 | 33979 ft | 436 kts | 313° |
| 2026-04-26 04:36 | 35.23420 | -120.53693 | 33989 ft | 435 kts | 313° |
| 2026-04-26 04:36 | 35.27886 | -120.58716 | 33984 ft | 436 kts | 313° |
| 2026-04-26 04:37 | 35.32320 | -120.63717 | 33968 ft | 437 kts | 313° |
| 2026-04-26 04:37 | 35.36795 | -120.68771 | 33971 ft | 438 kts | 313° |
| 2026-04-26 04:38 | 35.41279 | -120.73842 | 33980 ft | 439 kts | 313° |
| 2026-04-26 04:38 | 35.45770 | -120.78928 | 33967 ft | 439 kts | 313° |
| 2026-04-26 04:39 | 35.50367 | -120.83891 | 33980 ft | 442 kts | 318° |
| 2026-04-26 04:39 | 35.55289 | -120.88433 | 33973 ft | 444 kts | 320° |
| 2026-04-26 04:40 | 35.60265 | -120.92944 | 33977 ft | 444 kts | 320° |
| 2026-04-26 04:40 | 35.65205 | -120.97497 | 33967 ft | 444 kts | 320° |
| 2026-04-26 04:41 | 35.70129 | -121.02080 | 33969 ft | 443 kts | 320° |
| 2026-04-26 04:41 | 35.75046 | -121.06673 | 33970 ft | 443 kts | 320° |
| 2026-04-26 04:42 | 35.79953 | -121.11263 | 33960 ft | 443 kts | 320° |
| 2026-04-26 04:42 | 35.82406 | -121.13560 | 33742 ft | 446 kts | 320° |
| 2026-04-26 04:42 | 35.84881 | -121.15880 | 33161 ft | 446 kts | 321° |
| 2026-04-26 04:42 | 35.87346 | -121.18191 | 32663 ft | 442 kts | 321° |
| 2026-04-26 04:43 | 35.89785 | -121.20479 | 32194 ft | 438 kts | 321° |
| 2026-04-26 04:43 | 35.92196 | -121.22743 | 31739 ft | 434 kts | 322° |
| 2026-04-26 04:43 | 35.94588 | -121.24992 | 31279 ft | 431 kts | 323° |
| 2026-04-26 04:43 | 35.96929 | -121.27195 | 30841 ft | 427 kts | 323° |
| 2026-04-26 04:44 | 35.99313 | -121.29440 | 30395 ft | 424 kts | 323° |
| 2026-04-26 04:44 | 36.01618 | -121.31610 | 29959 ft | 421 kts | 324° |
| 2026-04-26 04:44 | 36.03938 | -121.33797 | 29433 ft | 417 kts | 324° |
| 2026-04-26 04:44 | 36.06229 | -121.35958 | 28960 ft | 413 kts | 324° |
| 2026-04-26 04:45 | 36.08554 | -121.38012 | 28498 ft | 408 kts | 328° |
| 2026-04-26 04:45 | 36.10931 | -121.39893 | 28072 ft | 403 kts | 329° |
| 2026-04-26 04:45 | 36.13311 | -121.41702 | 27616 ft | 399 kts | 329° |
| 2026-04-26 04:45 | 36.15669 | -121.43483 | 27201 ft | 395 kts | 329° |
| 2026-04-26 04:46 | 36.18004 | -121.45260 | 26764 ft | 392 kts | 329° |
| 2026-04-26 04:46 | 36.20311 | -121.47034 | 26339 ft | 389 kts | 329° |
| 2026-04-26 04:46 | 36.22598 | -121.48805 | 25923 ft | 386 kts | 328° |
| 2026-04-26 04:46 | 36.24868 | -121.50572 | 25508 ft | 384 kts | 328° |
| 2026-04-26 04:47 | 36.27125 | -121.52334 | 25091 ft | 383 kts | 328° |
| 2026-04-26 04:47 | 36.28620 | -121.53502 | 24833 ft | 381 kts | 328° |
| 2026-04-26 04:47 | 36.30856 | -121.55251 | 24420 ft | 379 kts | 328° |
| 2026-04-26 04:47 | 36.33082 | -121.56995 | 24020 ft | 376 kts | 327° |
| 2026-04-26 04:48 | 36.37486 | -121.60449 | 23132 ft | 373 kts | 327° |
| 2026-04-26 04:48 | 36.39668 | -121.62162 | 22695 ft | 370 kts | 327° |
| 2026-04-26 04:48 | 36.41838 | -121.63866 | 22279 ft | 367 kts | 327° |
| 2026-04-26 04:49 | 36.43954 | -121.65528 | 21892 ft | 363 kts | 327° |
| 2026-04-26 04:49 | 36.46078 | -121.67198 | 21484 ft | 360 kts | 327° |
| 2026-04-26 04:49 | 36.48186 | -121.68856 | 21091 ft | 357 kts | 328° |
| 2026-04-26 04:49 | 36.50279 | -121.70504 | 20705 ft | 354 kts | 327° |
| 2026-04-26 04:50 | 36.52351 | -121.72138 | 20336 ft | 352 kts | 328° |
| 2026-04-26 04:50 | 36.54414 | -121.73769 | 19941 ft | 349 kts | 328° |
| 2026-04-26 04:50 | 36.56457 | -121.75385 | 19546 ft | 348 kts | 328° |
| 2026-04-26 04:50 | 36.58496 | -121.76998 | 19155 ft | 346 kts | 328° |
| 2026-04-26 04:51 | 36.60517 | -121.78599 | 18776 ft | 344 kts | 328° |
| 2026-04-26 04:51 | 36.62534 | -121.80197 | 18398 ft | 342 kts | 329° |
| 2026-04-26 04:51 | 36.64533 | -121.81783 | 18014 ft | 340 kts | 328° |
| 2026-04-26 04:51 | 36.66522 | -121.83360 | 17592 ft | 338 kts | 328° |
| 2026-04-26 04:52 | 36.68493 | -121.84923 | 17211 ft | 335 kts | 328° |
| 2026-04-26 04:52 | 36.70457 | -121.86483 | 16836 ft | 333 kts | 328° |
| 2026-04-26 04:52 | 36.72398 | -121.88025 | 16460 ft | 330 kts | 328° |
| 2026-04-26 04:52 | 36.74376 | -121.89465 | 16075 ft | 327 kts | 338° |
| 2026-04-26 04:53 | 36.76550 | -121.90209 | 15743 ft | 323 kts | 348° |
| 2026-04-26 04:53 | 36.78746 | -121.90786 | 15357 ft | 321 kts | 348° |
| 2026-04-26 04:53 | 36.80925 | -121.91357 | 14992 ft | 319 kts | 348° |
| 2026-04-26 04:53 | 36.83096 | -121.91937 | 14627 ft | 318 kts | 348° |
| 2026-04-26 04:54 | 36.85255 | -121.92526 | 14258 ft | 316 kts | 347° |
| 2026-04-26 04:54 | 36.87393 | -121.93117 | 13903 ft | 315 kts | 347° |
| 2026-04-26 04:54 | 36.89533 | -121.93713 | 13508 ft | 313 kts | 347° |
| 2026-04-26 04:54 | 36.91631 | -121.94299 | 13119 ft | 312 kts | 347° |
| 2026-04-26 04:55 | 36.93771 | -121.94898 | 12734 ft | 310 kts | 347° |
| 2026-04-26 04:55 | 36.95834 | -121.95507 | 12366 ft | 308 kts | 345° |
| 2026-04-26 04:55 | 36.97890 | -121.96269 | 11977 ft | 307 kts | 342° |
| 2026-04-26 04:55 | 36.99948 | -121.97087 | 11596 ft | 306 kts | 342° |
| 2026-04-26 04:56 | 37.01948 | -121.97890 | 11239 ft | 307 kts | 342° |
| 2026-04-26 04:56 | 37.03990 | -121.98706 | 10879 ft | 308 kts | 342° |
| 2026-04-26 04:56 | 37.06024 | -121.99512 | 10547 ft | 305 kts | 341° |
| 2026-04-26 04:56 | 37.08018 | -122.00298 | 10429 ft | 296 kts | 341° |
| 2026-04-26 04:57 | 37.09959 | -122.01059 | 10300 ft | 288 kts | 341° |
| 2026-04-26 04:57 | 37.11848 | -122.01799 | 10169 ft | 280 kts | 341° |
| 2026-04-26 04:57 | 37.13687 | -122.02519 | 10051 ft | 273 kts | 341° |
| 2026-04-26 04:57 | 37.15484 | -122.03223 | 9826 ft | 270 kts | 342° |
| 2026-04-26 04:58 | 37.17271 | -122.03923 | 9554 ft | 268 kts | 342° |
| 2026-04-26 04:58 | 37.19051 | -122.04622 | 9279 ft | 267 kts | 341° |
| 2026-04-26 04:58 | 37.20819 | -122.05315 | 8999 ft | 267 kts | 341° |
| 2026-04-26 04:58 | 37.22596 | -122.06013 | 8719 ft | 266 kts | 341° |
| 2026-04-26 04:59 | 37.24361 | -122.06706 | 8452 ft | 266 kts | 341° |
| 2026-04-26 04:59 | 37.26124 | -122.07396 | 8166 ft | 265 kts | 341° |
| 2026-04-26 04:59 | 37.27883 | -122.08085 | 7892 ft | 265 kts | 340° |
| 2026-04-26 04:59 | 37.29660 | -122.08780 | 7537 ft | 268 kts | 341° |
| 2026-04-26 05:00 | 37.31451 | -122.09490 | 7193 ft | 271 kts | 340° |
| 2026-04-26 05:00 | 37.33259 | -122.10204 | 6846 ft | 274 kts | 340° |
| 2026-04-26 05:00 | 37.35081 | -122.10923 | 6483 ft | 274 kts | 340° |
| 2026-04-26 05:00 | 37.36865 | -122.11626 | 6100 ft | 270 kts | 339° |
| 2026-04-26 05:01 | 37.38650 | -122.12297 | 5758 ft | 265 kts | 342° |
| 2026-04-26 05:01 | 37.40416 | -122.12897 | 5426 ft | 260 kts | 342° |
| 2026-04-26 05:01 | 37.42146 | -122.13480 | 5107 ft | 256 kts | 342° |
| 2026-04-26 05:01 | 37.43856 | -122.14061 | 4799 ft | 252 kts | 342° |
| 2026-04-26 05:02 | 37.45536 | -122.14634 | 4481 ft | 248 kts | 341° |
| 2026-04-26 05:02 | 37.47193 | -122.15202 | 4184 ft | 245 kts | 342° |
| 2026-04-26 05:02 | 37.48817 | -122.15759 | 3916 ft | 238 kts | 342° |
| 2026-04-26 05:02 | 37.50389 | -122.16298 | 3614 ft | 229 kts | 341° |
| 2026-04-26 05:03 | 37.51898 | -122.16816 | 3342 ft | 221 kts | 341° |
| 2026-04-26 05:03 | 37.53266 | -122.17488 | 3084 ft | 205 kts | 318° |
| 2026-04-26 05:03 | 37.54026 | -122.18855 | 2942 ft | 183 kts | 292° |
| 2026-04-26 05:03 | 37.54617 | -122.20216 | 2825 ft | 173 kts | 296° |
| 2026-04-26 05:04 | 37.55200 | -122.21530 | 2600 ft | 171 kts | 295° |
| 2026-04-26 05:04 | 37.55759 | -122.22848 | 2385 ft | 168 kts | 295° |
| 2026-04-26 05:04 | 37.56288 | -122.24111 | 2166 ft | 160 kts | 294° |
| 2026-04-26 05:04 | 37.56795 | -122.25329 | 1940 ft | 153 kts | 294° |
| 2026-04-26 05:05 | 37.57276 | -122.26485 | 1741 ft | 147 kts | 295° |
| 2026-04-26 05:05 | 37.57750 | -122.27623 | 1541 ft | 147 kts | 295° |
| 2026-04-26 05:05 | 37.58228 | -122.28770 | 1338 ft | 149 kts | 295° |
| 2026-04-26 05:05 | 37.58713 | -122.29929 | 1116 ft | 149 kts | 294° |
| 2026-04-26 05:06 | 37.59194 | -122.31088 | 924 ft | 149 kts | 294° |
| 2026-04-26 05:06 | 37.59683 | -122.32245 | 692 ft | 150 kts | 295° |
| 2026-04-26 05:06 | 37.60154 | -122.33397 | 489 ft | 149 kts | 294° |
| 2026-04-26 05:06 | 37.60630 | -122.34564 | 304 ft | 150 kts | 295° |
| 2026-04-26 05:07 | 37.61124 | -122.35736 | 108 ft | 149 kts | 296° |
| 2026-04-26 05:07 | 37.61589 | -122.36836 | 22 ft | 128 kts | 297° |
| 2026-04-26 05:07 | 37.61904 | -122.37584 | 21 ft | 58 kts | 297° |
| 2026-04-26 05:07 | 37.62000 | -122.37830 | 21 ft | 20 kts | 282° |
| 2026-04-26 05:08 | 37.61979 | -122.37916 | 23 ft | 7 kts | 227° |
| 2026-04-26 05:08 | 37.61938 | -122.37949 | 21 ft | 7 kts | 191° |
| 2026-04-26 05:08 | 37.61893 | -122.37928 | 21 ft | 7 kts | 145° |
| 2026-04-26 05:08 | 37.61850 | -122.37892 | 23 ft | 9 kts | 141° |
| 2026-04-26 05:09 | 37.61808 | -122.37802 | 22 ft | 14 kts | 111° |
| 2026-04-26 05:09 | 37.61774 | -122.37689 | 21 ft | 14 kts | 111° |
| 2026-04-26 05:09 | 37.61740 | -122.37580 | 21 ft | 13 kts | 111° |
| 2026-04-26 05:09 | 37.61704 | -122.37477 | 21 ft | 13 kts | 118° |
| 2026-04-26 05:10 | 37.61633 | -122.37443 | 21 ft | 12 kts | 208° |
| 2026-04-26 05:10 | 37.61539 | -122.37505 | 21 ft | 19 kts | 207° |
| 2026-04-26 05:10 | 37.61424 | -122.37581 | 22 ft | 18 kts | 208° |
| 2026-04-26 05:10 | 37.61322 | -122.37669 | 21 ft | 18 kts | 231° |
| 2026-04-26 05:11 | 37.61294 | -122.37813 | 23 ft | 17 kts | 283° |
| 2026-04-26 05:11 | 37.61345 | -122.37947 | 21 ft | 17 kts | 297° |
| 2026-04-26 05:11 | 37.61391 | -122.38060 | 21 ft | 11 kts | 297° |
| 2026-04-26 05:11 | 37.61395 | -122.38138 | 21 ft | 10 kts | 231° |
| 2026-04-26 05:12 | 37.61339 | -122.38181 | 22 ft | 9 kts | 208° |
| 2026-04-26 05:12 | 37.61294 | -122.38234 | 21 ft | 9 kts | 259° |
| 2026-04-26 05:12 | 37.61295 | -122.38290 | 21 ft | 3 kts | 258° |
| 2026-04-26 05:12 | 37.61291 | -122.38320 | 22 ft | 3 kts | 278° |
| 2026-04-26 05:13 | 37.61300 | -122.38348 | 21 ft | 3 kts | 297° |
| 2026-04-26 05:13 | 37.61307 | -122.38365 | 21 ft | 1 kts | 298° |
| 2026-04-26 05:13 | 37.61308 | -122.38366 | 21 ft | 0 kts | 298° |